»·PEaware :: N372HP KONT-KPSP

N372HP :: KONT-KPSP

FLIGHT INFORMATION

Flight Status: Arrived
Operator: Privately registered:
United States
More flights under this callsign
Pilot: Lamont A. (24221)
Aircraft: CESSNA 172 SKYHAWK
(C172)
More flights by this aircraft type
Origin: KONT Ontario Intl
United States
Destination: KPSP Palm Springs Intl
United States
More flights between these airports :: More routes between these airports
Route: KREI
File this flight plan on PilotEdge
Remarks: +CW /
Altitude:
(Current/Filed)
7,500ft
Speed:
(Current/Filed)
110kts
Departed: 27-Apr-19 04:54 PM
Arrived: 27-Apr-19 05:33 PM
Distance/Time
Traveled:
57nm/0:39
Distance/Time
To Go:
Arrived

Flight Plot

Page will automatically refresh every two minutes.


Map Options




Map Legend


Flown Route
Filed Route
Departure Airport
Arrival Airport
Navaid (VOR, NDB)
Fix

Horizontal Profiles

Position Reports

Time Latitude Longitude Heading Altitude Ground
Speed
27-Apr-19 16:17 34.052854 -117.612271 180 947ft 0kts
27-Apr-19 16:19 34.052854 -117.612271 180 947ft 0kts
27-Apr-19 16:20 34.052854 -117.612271 180 947ft 0kts
27-Apr-19 16:20 34.052854 -117.612271 180 947ft 0kts
27-Apr-19 16:22 34.052854 -117.612271 180 947ft 0kts
27-Apr-19 16:23 34.052854 -117.612271 180 947ft 0kts
27-Apr-19 16:23 34.052854 -117.612271 180 947ft 0kts
27-Apr-19 16:24 34.052854 -117.612271 180 947ft 0kts
27-Apr-19 16:25 34.052854 -117.612271 180 947ft 0kts
27-Apr-19 16:26 34.052854 -117.612271 180 947ft 0kts
27-Apr-19 16:27 34.052854 -117.612271 180 947ft 0kts
27-Apr-19 16:28 34.052854 -117.612271 180 947ft 0kts
27-Apr-19 16:29 34.052854 -117.612271 180 947ft 0kts
27-Apr-19 16:30 34.052854 -117.612271 180 947ft 0kts
27-Apr-19 16:31 34.052854 -117.612271 180 947ft 0kts
27-Apr-19 16:32 34.052854 -117.612271 180 947ft 0kts
27-Apr-19 16:33 34.052854 -117.612271 180 947ft 0kts
27-Apr-19 16:34 34.052854 -117.612271 180 947ft 0kts
27-Apr-19 16:35 34.052854 -117.612271 180 947ft 0kts
27-Apr-19 16:36 34.052854 -117.612271 180 947ft 0kts
27-Apr-19 16:37 34.052854 -117.612271 180 947ft 0kts
27-Apr-19 16:38 34.052854 -117.612271 180 947ft 0kts
27-Apr-19 16:39 34.052854 -117.612271 180 947ft 0kts
27-Apr-19 16:40 34.052854 -117.612271 180 947ft 0kts
27-Apr-19 16:41 34.052854 -117.612271 180 947ft 0kts
27-Apr-19 16:42 34.052854 -117.612271 180 947ft 0kts
27-Apr-19 16:43 34.052854 -117.612271 180 947ft 0kts
27-Apr-19 16:44 34.052854 -117.612271 180 947ft 0kts
27-Apr-19 16:45 34.052830 -117.612264 156 947ft 1kts
27-Apr-19 16:46 34.053829 -117.611832 86 947ft 16kts
27-Apr-19 16:47 34.053832 -117.602186 89 947ft 19kts
27-Apr-19 16:48 34.053846 -117.593794 90 947ft 25kts
27-Apr-19 16:49 34.053844 -117.585424 88 947ft 28kts
27-Apr-19 16:50 34.054011 -117.582575 38 947ft 0kts
27-Apr-19 16:51 34.054011 -117.582575 38 947ft 0kts
27-Apr-19 16:53 34.054960 -117.587415 269 953ft 69kts
27-Apr-19 16:54 34.054376 -117.609914 265 1554ft 75kts
27-Apr-19 16:55 34.044974 -117.626585 186 2240ft 78kts
27-Apr-19 16:56 34.026819 -117.613767 150 2976ft 75kts
27-Apr-19 16:57 34.003144 -117.598200 151 3001ft 109kts
27-Apr-19 16:58 33.988871 -117.568061 99 3199ft 102kts
27-Apr-19 16:59 33.986226 -117.536855 94 3678ft 92kts
27-Apr-19 17:00 33.983911 -117.507455 94 4131ft 96kts
27-Apr-19 17:01 33.981276 -117.473684 94 4629ft 109kts
27-Apr-19 17:02 33.978548 -117.438833 94 5102ft 111kts
27-Apr-19 17:03 33.975797 -117.403644 94 5577ft 110kts
27-Apr-19 17:04 33.974457 -117.367513 62 6067ft 109kts
27-Apr-19 17:05 33.990705 -117.338932 58 6545ft 108kts
27-Apr-19 17:06 34.006048 -117.308210 59 7042ft 106kts
27-Apr-19 17:07 34.020370 -117.279054 59 7486ft 108kts
27-Apr-19 17:08 34.036965 -117.245147 59 7500ft 126kts
27-Apr-19 17:09 34.054980 -117.208480 59 7499ft 128kts
27-Apr-19 17:10 34.073038 -117.171437 59 7500ft 128kts
27-Apr-19 17:11 34.078341 -117.131558 109 7499ft 128kts
27-Apr-19 17:12 34.063765 -117.092136 115 7499ft 128kts
27-Apr-19 17:13 34.048379 -117.053249 115 7499ft 128kts
27-Apr-19 17:14 34.032919 -117.014348 115 7499ft 128kts
27-Apr-19 17:15 34.017373 -116.975242 115 7499ft 128kts
27-Apr-19 17:16 34.001840 -116.936216 115 7499ft 128kts
27-Apr-19 17:17 33.986407 -116.897479 115 7499ft 128kts
27-Apr-19 17:18 33.970829 -116.858404 115 7499ft 128kts
27-Apr-19 17:19 33.955929 -116.818817 112 7356ft 131kts
27-Apr-19 17:20 33.942133 -116.779335 112 6848ft 125kts
27-Apr-19 17:21 33.928906 -116.740477 108 6345ft 124kts
27-Apr-19 17:22 33.919330 -116.700195 105 5844ft 125kts
27-Apr-19 17:23 33.909873 -116.659694 105 5341ft 125kts
27-Apr-19 17:24 33.897708 -116.619829 110 4532ft 123kts
27-Apr-19 17:25 33.884853 -116.588628 122 3800ft 85kts
27-Apr-19 17:26 33.871475 -116.565250 129 2947ft 84kts
27-Apr-19 17:27 33.856080 -116.545165 132 2046ft 80kts
27-Apr-19 17:28 33.842406 -116.523753 128 1461ft 77kts
27-Apr-19 17:29 33.831365 -116.502968 121 968ft 70kts
27-Apr-19 17:30 33.821647 -116.483730 138 1286ft 65kts
27-Apr-19 17:31 33.821665 -116.497707 321 603ft 61kts
27-Apr-19 17:32 33.829820 -116.504621 39 481ft 11kts
27-Apr-19 17:33 33.827540 -116.501845 148 481ft 16kts
27-Apr-19 17:34 33.823560 -116.497404 88 481ft 3kts

Navigation Log

Ident Type
Flight plan parsing failed, navigation log unavailable